sensor_id;sensor_type;location;lat;lon;timestamp;P1;durP1;ratioP1;P2;durP2;ratioP2
56653;SDS011;45096;52.302;4.634;2023-03-01T00:00:50;6.77;;;5.50;;
56653;SDS011;45096;52.302;4.634;2023-03-01T00:03:16;6.95;;;5.97;;
56653;SDS011;45096;52.302;4.634;2023-03-01T00:05:43;6.73;;;6.07;;
56653;SDS011;45096;52.302;4.634;2023-03-01T00:08:09;6.70;;;6.07;;
56653;SDS011;45096;52.302;4.634;2023-03-01T00:10:34;6.43;;;5.83;;
56653;SDS011;45096;52.302;4.634;2023-03-01T00:13:00;5.30;;;4.90;;
56653;SDS011;45096;52.302;4.634;2023-03-01T00:15:25;8.30;;;6.20;;
56653;SDS011;45096;52.302;4.634;2023-03-01T00:17:51;8.03;;;5.97;;
56653;SDS011;45096;52.302;4.634;2023-03-01T00:20:17;6.70;;;6.07;;
56653;SDS011;45096;52.302;4.634;2023-03-01T00:22:43;6.63;;;5.97;;
56653;SDS011;45096;52.302;4.634;2023-03-01T00:25:08;7.00;;;5.97;;
56653;SDS011;45096;52.302;4.634;2023-03-01T00:27:34;6.25;;;5.30;;
56653;SDS011;45096;52.302;4.634;2023-03-01T00:29:59;6.87;;;6.13;;
56653;SDS011;45096;52.302;4.634;2023-03-01T00:32:25;7.70;;;6.32;;
56653;SDS011;45096;52.302;4.634;2023-03-01T00:34:50;8.93;;;6.20;;
56653;SDS011;45096;52.302;4.634;2023-03-01T00:37:17;9.17;;;6.47;;
56653;SDS011;45096;52.302;4.634;2023-03-01T00:39:42;8.63;;;6.13;;
56653;SDS011;45096;52.302;4.634;2023-03-01T00:42:08;7.00;;;6.30;;
56653;SDS011;45096;52.302;4.634;2023-03-01T00:44:33;8.68;;;6.63;;
56653;SDS011;45096;52.302;4.634;2023-03-01T00:46:59;8.05;;;7.25;;
56653;SDS011;45096;52.302;4.634;2023-03-01T00:49:24;7.77;;;6.07;;
56653;SDS011;45096;52.302;4.634;2023-03-01T00:51:49;6.75;;;5.93;;
56653;SDS011;45096;52.302;4.634;2023-03-01T00:54:16;8.07;;;6.80;;
56653;SDS011;45096;52.302;4.634;2023-03-01T00:56:42;7.93;;;6.47;;
56653;SDS011;45096;52.302;4.634;2023-03-01T00:59:07;10.07;;;7.47;;
56653;SDS011;45096;52.302;4.634;2023-03-01T01:01:32;7.13;;;6.17;;
56653;SDS011;45096;52.302;4.634;2023-03-01T01:03:58;10.47;;;7.30;;
56653;SDS011;45096;52.302;4.634;2023-03-01T01:06:26;8.57;;;6.70;;
56653;SDS011;45096;52.302;4.634;2023-03-01T01:08:52;8.87;;;6.83;;
56653;SDS011;45096;52.302;4.634;2023-03-01T01:11:20;10.23;;;7.33;;
56653;SDS011;45096;52.302;4.634;2023-03-01T01:13:46;8.07;;;7.27;;
56653;SDS011;45096;52.302;4.634;2023-03-01T01:16:13;8.47;;;7.00;;
56653;SDS011;45096;52.302;4.634;2023-03-01T01:18:39;9.83;;;7.20;;
56653;SDS011;45096;52.302;4.634;2023-03-01T01:21:05;8.33;;;7.03;;
56653;SDS011;45096;52.302;4.634;2023-03-01T01:23:32;8.83;;;6.80;;
56653;SDS011;45096;52.302;4.634;2023-03-01T01:25:57;12.53;;;7.43;;
56653;SDS011;45096;52.302;4.634;2023-03-01T01:28:29;9.90;;;8.00;;
56653;SDS011;45096;52.302;4.634;2023-03-01T01:30:55;8.80;;;6.67;;
56653;SDS011;45096;52.302;4.634;2023-03-01T01:33:20;8.73;;;7.80;;
56653;SDS011;45096;52.302;4.634;2023-03-01T01:35:46;10.07;;;7.53;;
56653;SDS011;45096;52.302;4.634;2023-03-01T01:38:11;7.67;;;6.93;;
56653;SDS011;45096;52.302;4.634;2023-03-01T01:40:42;9.48;;;7.32;;
56653;SDS011;45096;52.302;4.634;2023-03-01T01:43:09;7.33;;;6.63;;
56653;SDS011;45096;52.302;4.634;2023-03-01T01:45:41;8.10;;;7.27;;
56653;SDS011;45096;52.302;4.634;2023-03-01T01:48:10;8.67;;;7.57;;
56653;SDS011;45096;52.302;4.634;2023-03-01T01:50:38;9.63;;;7.67;;
56653;SDS011;45096;52.302;4.634;2023-03-01T01:53:09;10.73;;;7.73;;
56653;SDS011;45096;52.302;4.634;2023-03-01T01:55:35;10.10;;;8.30;;
56653;SDS011;45096;52.302;4.634;2023-03-01T01:58:02;8.20;;;7.30;;
56653;SDS011;45096;52.302;4.634;2023-03-01T02:00:30;9.47;;;8.23;;
56653;SDS011;45096;52.302;4.634;2023-03-01T02:02:57;8.97;;;7.07;;
56653;SDS011;45096;52.302;4.634;2023-03-01T02:05:26;10.90;;;7.50;;
56653;SDS011;45096;52.302;4.634;2023-03-01T02:07:58;11.03;;;7.40;;
56653;SDS011;45096;52.302;4.634;2023-03-01T02:10:24;8.77;;;7.87;;
56653;SDS011;45096;52.302;4.634;2023-03-01T02:12:50;9.07;;;7.63;;
56653;SDS011;45096;52.302;4.634;2023-03-01T02:15:16;10.13;;;7.20;;
56653;SDS011;45096;52.302;4.634;2023-03-01T02:17:41;8.87;;;7.57;;
56653;SDS011;45096;52.302;4.634;2023-03-01T02:20:10;10.07;;;7.97;;
56653;SDS011;45096;52.302;4.634;2023-03-01T02:22:44;10.53;;;8.50;;
56653;SDS011;45096;52.302;4.634;2023-03-01T02:25:12;11.17;;;7.90;;
56653;SDS011;45096;52.302;4.634;2023-03-01T02:28:04;8.60;;;7.70;;
56653;SDS011;45096;52.302;4.634;2023-03-01T02:30:40;9.40;;;7.83;;
56653;SDS011;45096;52.302;4.634;2023-03-01T02:33:06;8.83;;;6.83;;
56653;SDS011;45096;52.302;4.634;2023-03-01T02:35:34;10.07;;;7.23;;
56653;SDS011;45096;52.302;4.634;2023-03-01T02:38:02;12.20;;;7.30;;
56653;SDS011;45096;52.302;4.634;2023-03-01T02:40:29;10.30;;;7.90;;
56653;SDS011;45096;52.302;4.634;2023-03-01T02:42:56;11.27;;;8.30;;
56653;SDS011;45096;52.302;4.634;2023-03-01T02:45:23;9.87;;;7.60;;
56653;SDS011;45096;52.302;4.634;2023-03-01T02:47:52;10.60;;;8.07;;
56653;SDS011;45096;52.302;4.634;2023-03-01T02:50:22;10.27;;;8.17;;
56653;SDS011;45096;52.302;4.634;2023-03-01T02:52:57;9.40;;;7.60;;
56653;SDS011;45096;52.302;4.634;2023-03-01T02:55:27;10.60;;;7.77;;
56653;SDS011;45096;52.302;4.634;2023-03-01T02:57:52;10.03;;;7.57;;
56653;SDS011;45096;52.302;4.634;2023-03-01T03:00:19;9.73;;;7.63;;
56653;SDS011;45096;52.302;4.634;2023-03-01T03:02:46;10.80;;;7.73;;
56653;SDS011;45096;52.302;4.634;2023-03-01T03:05:16;9.53;;;8.10;;
56653;SDS011;45096;52.302;4.634;2023-03-01T03:07:43;10.53;;;8.70;;
56653;SDS011;45096;52.302;4.634;2023-03-01T03:10:10;9.97;;;7.87;;
56653;SDS011;45096;52.302;4.634;2023-03-01T03:12:37;9.37;;;7.80;;
56653;SDS011;45096;52.302;4.634;2023-03-01T03:15:04;10.40;;;7.80;;
56653;SDS011;45096;52.302;4.634;2023-03-01T03:17:30;12.10;;;9.03;;
56653;SDS011;45096;52.302;4.634;2023-03-01T03:19:56;10.00;;;7.83;;
56653;SDS011;45096;52.302;4.634;2023-03-01T03:22:22;11.17;;;8.53;;
56653;SDS011;45096;52.302;4.634;2023-03-01T03:24:48;8.50;;;7.60;;
56653;SDS011;45096;52.302;4.634;2023-03-01T03:27:13;11.43;;;8.13;;
56653;SDS011;45096;52.302;4.634;2023-03-01T03:29:39;15.33;;;8.73;;
56653;SDS011;45096;52.302;4.634;2023-03-01T03:32:04;10.70;;;8.03;;
56653;SDS011;45096;52.302;4.634;2023-03-01T03:34:30;12.33;;;8.33;;
56653;SDS011;45096;52.302;4.634;2023-03-01T03:36:55;12.77;;;8.57;;
56653;SDS011;45096;52.302;4.634;2023-03-01T03:39:22;11.23;;;8.80;;
56653;SDS011;45096;52.302;4.634;2023-03-01T03:41:48;11.57;;;8.83;;
56653;SDS011;45096;52.302;4.634;2023-03-01T03:44:13;12.07;;;8.67;;
56653;SDS011;45096;52.302;4.634;2023-03-01T03:46:39;12.30;;;9.27;;
56653;SDS011;45096;52.302;4.634;2023-03-01T03:49:04;15.97;;;10.73;;
56653;SDS011;45096;52.302;4.634;2023-03-01T03:51:30;14.53;;;10.20;;
56653;SDS011;45096;52.302;4.634;2023-03-01T03:53:55;15.13;;;10.23;;
56653;SDS011;45096;52.302;4.634;2023-03-01T03:56:22;17.60;;;12.23;;
56653;SDS011;45096;52.302;4.634;2023-03-01T03:58:47;17.67;;;11.67;;
56653;SDS011;45096;52.302;4.634;2023-03-01T04:01:13;13.80;;;11.07;;
56653;SDS011;45096;52.302;4.634;2023-03-01T04:03:38;16.47;;;11.07;;
56653;SDS011;45096;52.302;4.634;2023-03-01T04:06:04;14.73;;;11.43;;
56653;SDS011;45096;52.302;4.634;2023-03-01T04:08:29;18.27;;;11.23;;
56653;SDS011;45096;52.302;4.634;2023-03-01T04:10:57;16.70;;;11.73;;
56653;SDS011;45096;52.302;4.634;2023-03-01T04:13:25;18.03;;;10.97;;
56653;SDS011;45096;52.302;4.634;2023-03-01T04:15:50;15.40;;;11.13;;
56653;SDS011;45096;52.302;4.634;2023-03-01T04:18:16;19.60;;;12.93;;
56653;SDS011;45096;52.302;4.634;2023-03-01T04:20:43;17.80;;;12.00;;
56653;SDS011;45096;52.302;4.634;2023-03-01T04:23:10;25.23;;;14.30;;
56653;SDS011;45096;52.302;4.634;2023-03-01T04:25:37;20.43;;;11.87;;
56653;SDS011;45096;52.302;4.634;2023-03-01T04:28:03;18.10;;;13.10;;
56653;SDS011;45096;52.302;4.634;2023-03-01T04:30:30;16.73;;;12.17;;
56653;SDS011;45096;52.302;4.634;2023-03-01T04:32:56;19.33;;;12.57;;
56653;SDS011;45096;52.302;4.634;2023-03-01T04:35:21;16.63;;;11.63;;
56653;SDS011;45096;52.302;4.634;2023-03-01T04:37:46;18.70;;;12.63;;
56653;SDS011;45096;52.302;4.634;2023-03-01T04:40:12;18.03;;;12.33;;
56653;SDS011;45096;52.302;4.634;2023-03-01T04:42:37;19.07;;;12.23;;
56653;SDS011;45096;52.302;4.634;2023-03-01T04:45:03;18.20;;;12.43;;
56653;SDS011;45096;52.302;4.634;2023-03-01T04:47:31;20.87;;;12.43;;
56653;SDS011;45096;52.302;4.634;2023-03-01T04:49:56;20.10;;;12.47;;
56653;SDS011;45096;52.302;4.634;2023-03-01T04:52:22;16.77;;;11.13;;
56653;SDS011;45096;52.302;4.634;2023-03-01T04:54:47;17.80;;;11.73;;
56653;SDS011;45096;52.302;4.634;2023-03-01T04:57:13;17.50;;;10.80;;
56653;SDS011;45096;52.302;4.634;2023-03-01T04:59:38;20.93;;;13.23;;
56653;SDS011;45096;52.302;4.634;2023-03-01T05:02:04;18.73;;;11.73;;
56653;SDS011;45096;52.302;4.634;2023-03-01T05:04:30;16.63;;;11.30;;
56653;SDS011;45096;52.302;4.634;2023-03-01T05:06:56;16.50;;;11.67;;
56653;SDS011;45096;52.302;4.634;2023-03-01T05:09:21;16.33;;;11.30;;
56653;SDS011;45096;52.302;4.634;2023-03-01T05:11:46;15.93;;;11.97;;
56653;SDS011;45096;52.302;4.634;2023-03-01T05:14:12;16.90;;;11.53;;
56653;SDS011;45096;52.302;4.634;2023-03-01T05:16:37;16.63;;;12.30;;
56653;SDS011;45096;52.302;4.634;2023-03-01T05:19:03;20.03;;;12.87;;
56653;SDS011;45096;52.302;4.634;2023-03-01T05:21:30;20.40;;;12.33;;
56653;SDS011;45096;52.302;4.634;2023-03-01T05:23:55;20.47;;;11.63;;
56653;SDS011;45096;52.302;4.634;2023-03-01T05:26:21;18.33;;;11.33;;
56653;SDS011;45096;52.302;4.634;2023-03-01T05:28:46;17.83;;;11.77;;
56653;SDS011;45096;52.302;4.634;2023-03-01T05:31:11;20.47;;;12.77;;
56653;SDS011;45096;52.302;4.634;2023-03-01T05:33:37;24.23;;;12.40;;
56653;SDS011;45096;52.302;4.634;2023-03-01T05:36:03;20.07;;;12.83;;
56653;SDS011;45096;52.302;4.634;2023-03-01T05:38:31;20.50;;;13.17;;
56653;SDS011;45096;52.302;4.634;2023-03-01T05:40:56;19.97;;;12.83;;
56653;SDS011;45096;52.302;4.634;2023-03-01T05:43:21;20.10;;;11.87;;
56653;SDS011;45096;52.302;4.634;2023-03-01T05:45:47;20.33;;;13.07;;
56653;SDS011;45096;52.302;4.634;2023-03-01T05:48:13;18.77;;;12.10;;
56653;SDS011;45096;52.302;4.634;2023-03-01T05:50:39;18.90;;;12.63;;
56653;SDS011;45096;52.302;4.634;2023-03-01T05:53:06;19.20;;;11.47;;
56653;SDS011;45096;52.302;4.634;2023-03-01T05:55:34;18.47;;;12.20;;
56653;SDS011;45096;52.302;4.634;2023-03-01T05:58:00;22.03;;;13.13;;
56653;SDS011;45096;52.302;4.634;2023-03-01T06:00:26;18.23;;;11.70;;
56653;SDS011;45096;52.302;4.634;2023-03-01T06:02:53;16.80;;;12.50;;
56653;SDS011;45096;52.302;4.634;2023-03-01T06:05:18;18.17;;;11.93;;
56653;SDS011;45096;52.302;4.634;2023-03-01T06:07:44;16.30;;;10.83;;
56653;SDS011;45096;52.302;4.634;2023-03-01T06:10:10;16.67;;;11.20;;
56653;SDS011;45096;52.302;4.634;2023-03-01T06:12:38;16.87;;;11.43;;
56653;SDS011;45096;52.302;4.634;2023-03-01T06:15:05;14.57;;;10.27;;
56653;SDS011;45096;52.302;4.634;2023-03-01T06:17:31;18.87;;;11.73;;
56653;SDS011;45096;52.302;4.634;2023-03-01T06:19:58;14.73;;;10.80;;
56653;SDS011;45096;52.302;4.634;2023-03-01T06:22:23;13.80;;;10.10;;
56653;SDS011;45096;52.302;4.634;2023-03-01T06:24:49;12.70;;;9.10;;
56653;SDS011;45096;52.302;4.634;2023-03-01T06:27:14;15.37;;;10.50;;
56653;SDS011;45096;52.302;4.634;2023-03-01T06:29:41;12.10;;;9.30;;
56653;SDS011;45096;52.302;4.634;2023-03-01T06:32:07;13.50;;;9.20;;
56653;SDS011;45096;52.302;4.634;2023-03-01T06:34:32;14.07;;;10.00;;
56653;SDS011;45096;52.302;4.634;2023-03-01T06:36:57;15.90;;;9.60;;
56653;SDS011;45096;52.302;4.634;2023-03-01T06:39:23;14.37;;;9.53;;
56653;SDS011;45096;52.302;4.634;2023-03-01T06:41:48;12.03;;;9.53;;
56653;SDS011;45096;52.302;4.634;2023-03-01T06:44:14;14.27;;;9.77;;
56653;SDS011;45096;52.302;4.634;2023-03-01T06:46:40;15.67;;;10.47;;
56653;SDS011;45096;52.302;4.634;2023-03-01T06:49:06;12.70;;;9.67;;
56653;SDS011;45096;52.302;4.634;2023-03-01T06:51:31;15.83;;;10.43;;
56653;SDS011;45096;52.302;4.634;2023-03-01T06:53:57;11.37;;;8.90;;
56653;SDS011;45096;52.302;4.634;2023-03-01T06:56:22;15.70;;;10.10;;
56653;SDS011;45096;52.302;4.634;2023-03-01T06:58:48;12.07;;;9.30;;
56653;SDS011;45096;52.302;4.634;2023-03-01T07:01:13;12.43;;;9.00;;
56653;SDS011;45096;52.302;4.634;2023-03-01T07:03:40;12.27;;;8.93;;
56653;SDS011;45096;52.302;4.634;2023-03-01T07:06:05;15.30;;;9.13;;
56653;SDS011;45096;52.302;4.634;2023-03-01T07:08:31;13.13;;;9.20;;
56653;SDS011;45096;52.302;4.634;2023-03-01T07:10:56;12.10;;;9.20;;
56653;SDS011;45096;52.302;4.634;2023-03-01T07:13:22;14.80;;;10.73;;
56653;SDS011;45096;52.302;4.634;2023-03-01T07:15:47;12.03;;;9.13;;
56653;SDS011;45096;52.302;4.634;2023-03-01T07:18:13;14.17;;;9.37;;
56653;SDS011;45096;52.302;4.634;2023-03-01T07:20:39;13.03;;;10.00;;
56653;SDS011;45096;52.302;4.634;2023-03-01T07:23:05;11.47;;;8.83;;
56653;SDS011;45096;52.302;4.634;2023-03-01T07:25:30;13.67;;;10.03;;
56653;SDS011;45096;52.302;4.634;2023-03-01T07:27:56;14.27;;;9.90;;
56653;SDS011;45096;52.302;4.634;2023-03-01T07:30:21;13.37;;;9.67;;
56653;SDS011;45096;52.302;4.634;2023-03-01T07:32:47;12.63;;;9.60;;
56653;SDS011;45096;52.302;4.634;2023-03-01T07:35:12;13.00;;;9.43;;
56653;SDS011;45096;52.302;4.634;2023-03-01T07:37:39;10.60;;;8.87;;
56653;SDS011;45096;52.302;4.634;2023-03-01T07:40:05;12.40;;;9.03;;
56653;SDS011;45096;52.302;4.634;2023-03-01T07:42:32;11.63;;;8.80;;
56653;SDS011;45096;52.302;4.634;2023-03-01T07:44:57;13.00;;;9.27;;
56653;SDS011;45096;52.302;4.634;2023-03-01T07:47:23;13.47;;;9.53;;
56653;SDS011;45096;52.302;4.634;2023-03-01T07:49:48;11.77;;;8.97;;
56653;SDS011;45096;52.302;4.634;2023-03-01T07:52:13;11.73;;;8.97;;
56653;SDS011;45096;52.302;4.634;2023-03-01T07:54:41;9.70;;;8.50;;
56653;SDS011;45096;52.302;4.634;2023-03-01T07:57:07;14.47;;;10.53;;
56653;SDS011;45096;52.302;4.634;2023-03-01T07:59:33;12.30;;;9.30;;
56653;SDS011;45096;52.302;4.634;2023-03-01T08:01:58;13.53;;;8.30;;
56653;SDS011;45096;52.302;4.634;2023-03-01T08:04:23;11.60;;;8.40;;
56653;SDS011;45096;52.302;4.634;2023-03-01T08:06:49;12.40;;;9.07;;
56653;SDS011;45096;52.302;4.634;2023-03-01T08:09:14;12.70;;;8.53;;
56653;SDS011;45096;52.302;4.634;2023-03-01T08:11:41;11.93;;;8.70;;
56653;SDS011;45096;52.302;4.634;2023-03-01T08:14:07;13.97;;;9.80;;
56653;SDS011;45096;52.302;4.634;2023-03-01T08:16:32;12.90;;;9.50;;
56653;SDS011;45096;52.302;4.634;2023-03-01T08:18:57;14.03;;;9.53;;
56653;SDS011;45096;52.302;4.634;2023-03-01T08:21:23;11.50;;;8.77;;
56653;SDS011;45096;52.302;4.634;2023-03-01T08:23:48;12.00;;;9.57;;
56653;SDS011;45096;52.302;4.634;2023-03-01T08:26:14;11.10;;;8.70;;
56653;SDS011;45096;52.302;4.634;2023-03-01T08:28:42;13.00;;;8.33;;
56653;SDS011;45096;52.302;4.634;2023-03-01T08:31:14;10.33;;;8.67;;
56653;SDS011;45096;52.302;4.634;2023-03-01T08:33:40;11.93;;;8.20;;
56653;SDS011;45096;52.302;4.634;2023-03-01T08:36:06;11.37;;;8.63;;
56653;SDS011;45096;52.302;4.634;2023-03-01T08:38:31;12.87;;;8.40;;
56653;SDS011;45096;52.302;4.634;2023-03-01T08:40:59;10.83;;;8.73;;
56653;SDS011;45096;52.302;4.634;2023-03-01T08:43:25;11.10;;;9.47;;
56653;SDS011;45096;52.302;4.634;2023-03-01T08:45:51;13.93;;;9.53;;
56653;SDS011;45096;52.302;4.634;2023-03-01T08:48:17;11.37;;;9.00;;
56653;SDS011;45096;52.302;4.634;2023-03-01T08:50:42;11.13;;;8.47;;
56653;SDS011;45096;52.302;4.634;2023-03-01T08:53:08;11.60;;;8.47;;
56653;SDS011;45096;52.302;4.634;2023-03-01T08:55:33;13.17;;;9.60;;
56653;SDS011;45096;52.302;4.634;2023-03-01T08:57:59;12.93;;;9.23;;
56653;SDS011;45096;52.302;4.634;2023-03-01T09:00:24;14.13;;;9.37;;
56653;SDS011;45096;52.302;4.634;2023-03-01T09:02:51;13.80;;;9.53;;
56653;SDS011;45096;52.302;4.634;2023-03-01T09:05:16;13.87;;;9.77;;
56653;SDS011;45096;52.302;4.634;2023-03-01T09:07:42;13.37;;;9.63;;
56653;SDS011;45096;52.302;4.634;2023-03-01T09:10:08;14.87;;;10.33;;
56653;SDS011;45096;52.302;4.634;2023-03-01T09:12:34;13.23;;;9.57;;
56653;SDS011;45096;52.302;4.634;2023-03-01T09:15:00;12.50;;;9.50;;
56653;SDS011;45096;52.302;4.634;2023-03-01T09:17:25;14.23;;;9.87;;
56653;SDS011;45096;52.302;4.634;2023-03-01T09:19:52;15.63;;;10.70;;
56653;SDS011;45096;52.302;4.634;2023-03-01T09:22:17;18.60;;;11.07;;
56653;SDS011;45096;52.302;4.634;2023-03-01T09:24:43;15.77;;;10.43;;
56653;SDS011;45096;52.302;4.634;2023-03-01T09:27:08;17.90;;;10.80;;
56653;SDS011;45096;52.302;4.634;2023-03-01T09:29:34;17.07;;;10.70;;
56653;SDS011;45096;52.302;4.634;2023-03-01T09:32:00;16.43;;;10.70;;
56653;SDS011;45096;52.302;4.634;2023-03-01T09:34:25;21.03;;;11.30;;
56653;SDS011;45096;52.302;4.634;2023-03-01T09:36:52;18.03;;;12.10;;
56653;SDS011;45096;52.302;4.634;2023-03-01T09:39:17;20.07;;;12.30;;
56653;SDS011;45096;52.302;4.634;2023-03-01T09:41:44;19.53;;;12.43;;
56653;SDS011;45096;52.302;4.634;2023-03-01T09:44:13;18.97;;;13.50;;
56653;SDS011;45096;52.302;4.634;2023-03-01T09:46:45;21.50;;;13.10;;
56653;SDS011;45096;52.302;4.634;2023-03-01T09:49:12;18.67;;;12.77;;
56653;SDS011;45096;52.302;4.634;2023-03-01T09:51:41;22.00;;;13.20;;
56653;SDS011;45096;52.302;4.634;2023-03-01T09:54:09;23.63;;;13.07;;
56653;SDS011;45096;52.302;4.634;2023-03-01T09:56:36;24.13;;;13.20;;
56653;SDS011;45096;52.302;4.634;2023-03-01T09:59:07;24.50;;;14.60;;
56653;SDS011;45096;52.302;4.634;2023-03-01T10:01:40;24.83;;;14.33;;
56653;SDS011;45096;52.302;4.634;2023-03-01T10:04:23;19.93;;;13.40;;
56653;SDS011;45096;52.302;4.634;2023-03-01T10:06:56;23.10;;;13.20;;
56653;SDS011;45096;52.302;4.634;2023-03-01T10:09:28;25.47;;;14.33;;
56653;SDS011;45096;52.302;4.634;2023-03-01T10:11:55;21.97;;;13.33;;
56653;SDS011;45096;52.302;4.634;2023-03-01T10:14:26;23.93;;;14.33;;
56653;SDS011;45096;52.302;4.634;2023-03-01T10:16:56;24.93;;;15.10;;
56653;SDS011;45096;52.302;4.634;2023-03-01T10:19:24;27.67;;;15.20;;
56653;SDS011;45096;52.302;4.634;2023-03-01T10:21:53;26.13;;;14.80;;
56653;SDS011;45096;52.302;4.634;2023-03-01T10:24:18;25.43;;;14.73;;
56653;SDS011;45096;52.302;4.634;2023-03-01T10:26:48;25.83;;;16.63;;
56653;SDS011;45096;52.302;4.634;2023-03-01T10:29:19;26.00;;;15.47;;
56653;SDS011;45096;52.302;4.634;2023-03-01T10:31:49;29.33;;;16.27;;
56653;SDS011;45096;52.302;4.634;2023-03-01T10:34:17;25.10;;;16.20;;
56653;SDS011;45096;52.302;4.634;2023-03-01T10:36:43;28.03;;;16.30;;
56653;SDS011;45096;52.302;4.634;2023-03-01T10:39:11;28.80;;;15.97;;
56653;SDS011;45096;52.302;4.634;2023-03-01T10:41:40;26.97;;;15.87;;
56653;SDS011;45096;52.302;4.634;2023-03-01T10:44:34;25.63;;;15.87;;
56653;SDS011;45096;52.302;4.634;2023-03-01T10:47:04;25.83;;;15.37;;
56653;SDS011;45096;52.302;4.634;2023-03-01T10:49:29;24.37;;;14.80;;
56653;SDS011;45096;52.302;4.634;2023-03-01T10:51:55;26.20;;;15.47;;
56653;SDS011;45096;52.302;4.634;2023-03-01T10:54:22;26.70;;;15.60;;
56653;SDS011;45096;52.302;4.634;2023-03-01T10:56:52;20.90;;;13.53;;
56653;SDS011;45096;52.302;4.634;2023-03-01T10:59:22;21.57;;;13.43;;
56653;SDS011;45096;52.302;4.634;2023-03-01T11:02:02;19.23;;;12.97;;
56653;SDS011;45096;52.302;4.634;2023-03-01T11:04:33;17.13;;;11.53;;
56653;SDS011;45096;52.302;4.634;2023-03-01T11:06:59;18.57;;;12.73;;
56653;SDS011;45096;52.302;4.634;2023-03-01T11:09:25;19.67;;;12.40;;
56653;SDS011;45096;52.302;4.634;2023-03-01T11:11:53;17.17;;;11.53;;
56653;SDS011;45096;52.302;4.634;2023-03-01T11:14:20;15.57;;;11.00;;
56653;SDS011;45096;52.302;4.634;2023-03-01T11:16:47;14.83;;;10.40;;
56653;SDS011;45096;52.302;4.634;2023-03-01T11:19:18;15.30;;;11.03;;
56653;SDS011;45096;52.302;4.634;2023-03-01T11:21:53;14.90;;;10.40;;
56653;SDS011;45096;52.302;4.634;2023-03-01T11:24:22;17.73;;;10.93;;
56653;SDS011;45096;52.302;4.634;2023-03-01T11:26:52;15.27;;;9.90;;
56653;SDS011;45096;52.302;4.634;2023-03-01T11:29:21;14.17;;;10.33;;
56653;SDS011;45096;52.302;4.634;2023-03-01T11:31:52;17.00;;;10.97;;
56653;SDS011;45096;52.302;4.634;2023-03-01T11:34:19;18.85;;;9.75;;
56653;SDS011;45096;52.302;4.634;2023-03-01T11:36:51;17.00;;;10.30;;
56653;SDS011;45096;52.302;4.634;2023-03-01T11:39:21;13.20;;;9.82;;
56653;SDS011;45096;52.302;4.634;2023-03-01T11:41:51;15.00;;;10.18;;
56653;SDS011;45096;52.302;4.634;2023-03-01T11:44:25;13.77;;;8.97;;
56653;SDS011;45096;52.302;4.634;2023-03-01T11:47:04;14.55;;;9.65;;
56653;SDS011;45096;52.302;4.634;2023-03-01T11:49:40;11.07;;;8.20;;
56653;SDS011;45096;52.302;4.634;2023-03-01T11:52:28;12.03;;;9.33;;
56653;SDS011;45096;52.302;4.634;2023-03-01T11:55:07;11.40;;;9.38;;
56653;SDS011;45096;52.302;4.634;2023-03-01T11:57:48;12.27;;;9.40;;
56653;SDS011;45096;52.302;4.634;2023-03-01T12:00:24;15.45;;;10.10;;
56653;SDS011;45096;52.302;4.634;2023-03-01T12:03:08;12.50;;;9.88;;
56653;SDS011;45096;52.302;4.634;2023-03-01T12:05:53;13.85;;;10.25;;
56653;SDS011;45096;52.302;4.634;2023-03-01T12:08:48;15.25;;;11.75;;
56653;SDS011;45096;52.302;4.634;2023-03-01T12:11:23;17.42;;;11.38;;
56653;SDS011;45096;52.302;4.634;2023-03-01T12:14:02;11.73;;;10.23;;
56653;SDS011;45096;52.302;4.634;2023-03-01T12:16:45;14.32;;;10.05;;
56653;SDS011;45096;52.302;4.634;2023-03-01T12:19:24;14.77;;;10.27;;
56653;SDS011;45096;52.302;4.634;2023-03-01T12:22:09;14.40;;;10.60;;
56653;SDS011;45096;52.302;4.634;2023-03-01T12:24:48;14.05;;;10.50;;
56653;SDS011;45096;52.302;4.634;2023-03-01T12:27:25;13.95;;;9.93;;
56653;SDS011;45096;52.302;4.634;2023-03-01T12:30:02;14.32;;;10.57;;
56653;SDS011;45096;52.302;4.634;2023-03-01T12:32:38;13.48;;;10.30;;
56653;SDS011;45096;52.302;4.634;2023-03-01T12:38:14;15.90;;;9.80;;
56653;SDS011;45096;52.302;4.634;2023-03-01T12:43:56;14.30;;;10.30;;
56653;SDS011;45096;52.302;4.634;2023-03-01T12:46:31;12.32;;;9.55;;
56653;SDS011;45096;52.302;4.634;2023-03-01T12:49:05;10.65;;;9.05;;
56653;SDS011;45096;52.302;4.634;2023-03-01T12:51:34;11.52;;;9.18;;
56653;SDS011;45096;52.302;4.634;2023-03-01T12:54:01;13.02;;;10.32;;
56653;SDS011;45096;52.302;4.634;2023-03-01T12:56:32;15.30;;;10.00;;
56653;SDS011;45096;52.302;4.634;2023-03-01T12:59:01;16.00;;;11.43;;
56653;SDS011;45096;52.302;4.634;2023-03-01T13:01:41;14.98;;;10.60;;
56653;SDS011;45096;52.302;4.634;2023-03-01T13:04:15;16.35;;;10.18;;
56653;SDS011;45096;52.302;4.634;2023-03-01T13:06:46;15.13;;;9.52;;
56653;SDS011;45096;52.302;4.634;2023-03-01T13:09:18;13.90;;;10.05;;
56653;SDS011;45096;52.302;4.634;2023-03-01T13:11:48;11.57;;;9.23;;
56653;SDS011;45096;52.302;4.634;2023-03-01T13:17:33;13.90;;;9.68;;
56653;SDS011;45096;52.302;4.634;2023-03-01T13:20:11;14.05;;;9.80;;
56653;SDS011;45096;52.302;4.634;2023-03-01T13:22:38;13.10;;;10.20;;
56653;SDS011;45096;52.302;4.634;2023-03-01T13:25:11;14.35;;;10.20;;
56653;SDS011;45096;52.302;4.634;2023-03-01T13:27:39;13.60;;;9.43;;
56653;SDS011;45096;52.302;4.634;2023-03-01T13:30:12;14.32;;;9.27;;
56653;SDS011;45096;52.302;4.634;2023-03-01T13:33:33;10.80;;;8.55;;
56653;SDS011;45096;52.302;4.634;2023-03-01T13:36:04;12.23;;;8.88;;
56653;SDS011;45096;52.302;4.634;2023-03-01T13:38:37;13.13;;;9.10;;
56653;SDS011;45096;52.302;4.634;2023-03-01T13:41:04;11.88;;;8.70;;
56653;SDS011;45096;52.302;4.634;2023-03-01T13:43:30;10.63;;;8.85;;
56653;SDS011;45096;52.302;4.634;2023-03-01T13:45:58;10.23;;;7.75;;
56653;SDS011;45096;52.302;4.634;2023-03-01T13:48:26;11.40;;;8.73;;
56653;SDS011;45096;52.302;4.634;2023-03-01T13:50:54;14.00;;;8.23;;
56653;SDS011;45096;52.302;4.634;2023-03-01T13:53:22;9.45;;;7.88;;
56653;SDS011;45096;52.302;4.634;2023-03-01T13:55:50;11.25;;;8.68;;
56653;SDS011;45096;52.302;4.634;2023-03-01T13:58:19;11.45;;;8.88;;
56653;SDS011;45096;52.302;4.634;2023-03-01T14:00:46;12.60;;;8.65;;
56653;SDS011;45096;52.302;4.634;2023-03-01T14:03:15;9.27;;;7.72;;
56653;SDS011;45096;52.302;4.634;2023-03-01T14:05:41;10.25;;;8.75;;
56653;SDS011;45096;52.302;4.634;2023-03-01T14:08:19;9.82;;;8.68;;
56653;SDS011;45096;52.302;4.634;2023-03-01T14:10:50;12.23;;;8.13;;
56653;SDS011;45096;52.302;4.634;2023-03-01T14:13:23;10.45;;;7.78;;
56653;SDS011;45096;52.302;4.634;2023-03-01T14:16:00;7.93;;;7.10;;
56653;SDS011;45096;52.302;4.634;2023-03-01T14:18:35;8.93;;;7.88;;
56653;SDS011;45096;52.302;4.634;2023-03-01T14:21:06;9.43;;;8.13;;
56653;SDS011;45096;52.302;4.634;2023-03-01T14:23:32;12.25;;;9.23;;
56653;SDS011;45096;52.302;4.634;2023-03-01T14:25:58;11.77;;;8.00;;
56653;SDS011;45096;52.302;4.634;2023-03-01T14:28:25;10.32;;;8.45;;
56653;SDS011;45096;52.302;4.634;2023-03-01T14:30:52;11.02;;;8.52;;
56653;SDS011;45096;52.302;4.634;2023-03-01T14:33:20;11.55;;;8.50;;
56653;SDS011;45096;52.302;4.634;2023-03-01T14:35:59;10.77;;;7.97;;
56653;SDS011;45096;52.302;4.634;2023-03-01T14:38:31;10.20;;;8.38;;
56653;SDS011;45096;52.302;4.634;2023-03-01T14:40:58;9.13;;;7.65;;
56653;SDS011;45096;52.302;4.634;2023-03-01T14:43:28;10.25;;;9.10;;
56653;SDS011;45096;52.302;4.634;2023-03-01T14:45:56;11.40;;;8.55;;